sensor_id;sensor_type;location;lat;lon;timestamp;P1;durP1;ratioP1;P2;durP2;ratioP2
49241;SDS011;35079;52.704;13.814;2023-07-20T00:02:23;3.58;;;2.33;;
49241;SDS011;35079;52.704;13.814;2023-07-20T00:04:48;5.28;;;2.47;;
49241;SDS011;35079;52.704;13.814;2023-07-20T00:07:14;6.35;;;2.42;;
49241;SDS011;35079;52.704;13.814;2023-07-20T00:09:40;4.65;;;2.42;;
49241;SDS011;35079;52.704;13.814;2023-07-20T00:12:05;3.83;;;2.50;;
49241;SDS011;35079;52.704;13.814;2023-07-20T00:14:32;3.05;;;2.30;;
49241;SDS011;35079;52.704;13.814;2023-07-20T00:16:57;2.90;;;2.33;;
49241;SDS011;35079;52.704;13.814;2023-07-20T00:19:26;3.75;;;2.20;;
49241;SDS011;35079;52.704;13.814;2023-07-20T00:21:52;4.65;;;2.47;;
49241;SDS011;35079;52.704;13.814;2023-07-20T00:24:19;3.50;;;2.40;;
49241;SDS011;35079;52.704;13.814;2023-07-20T00:26:45;3.67;;;2.50;;
49241;SDS011;35079;52.704;13.814;2023-07-20T00:29:11;3.95;;;2.50;;
49241;SDS011;35079;52.704;13.814;2023-07-20T00:31:36;5.03;;;3.38;;
49241;SDS011;35079;52.704;13.814;2023-07-20T00:34:06;5.55;;;3.17;;
49241;SDS011;35079;52.704;13.814;2023-07-20T00:36:32;4.00;;;2.67;;
49241;SDS011;35079;52.704;13.814;2023-07-20T00:38:57;4.05;;;3.13;;
49241;SDS011;35079;52.704;13.814;2023-07-20T00:41:23;4.43;;;2.70;;
49241;SDS011;35079;52.704;13.814;2023-07-20T00:43:49;4.55;;;2.95;;
49241;SDS011;35079;52.704;13.814;2023-07-20T00:46:15;4.90;;;2.85;;
49241;SDS011;35079;52.704;13.814;2023-07-20T00:48:41;3.17;;;2.53;;
49241;SDS011;35079;52.704;13.814;2023-07-20T00:51:07;5.43;;;2.90;;
49241;SDS011;35079;52.704;13.814;2023-07-20T00:53:33;5.00;;;3.10;;
49241;SDS011;35079;52.704;13.814;2023-07-20T00:55:59;4.70;;;3.20;;
49241;SDS011;35079;52.704;13.814;2023-07-20T00:58:25;2.92;;;2.60;;
49241;SDS011;35079;52.704;13.814;2023-07-20T01:00:51;3.70;;;2.75;;
49241;SDS011;35079;52.704;13.814;2023-07-20T01:03:17;3.38;;;2.78;;
49241;SDS011;35079;52.704;13.814;2023-07-20T01:05:48;3.90;;;2.67;;
49241;SDS011;35079;52.704;13.814;2023-07-20T01:08:43;4.32;;;3.40;;
49241;SDS011;35079;52.704;13.814;2023-07-20T01:11:23;3.10;;;2.80;;
49241;SDS011;35079;52.704;13.814;2023-07-20T01:13:56;4.25;;;2.97;;
49241;SDS011;35079;52.704;13.814;2023-07-20T01:16:23;3.95;;;3.50;;
49241;SDS011;35079;52.704;13.814;2023-07-20T01:18:49;4.40;;;3.10;;
49241;SDS011;35079;52.704;13.814;2023-07-20T01:21:18;4.93;;;3.10;;
49241;SDS011;35079;52.704;13.814;2023-07-20T01:32:48;3.47;;;3.13;;
49241;SDS011;35079;52.704;13.814;2023-07-20T01:35:15;5.00;;;3.55;;
49241;SDS011;35079;52.704;13.814;2023-07-20T01:37:43;8.02;;;3.55;;
49241;SDS011;35079;52.704;13.814;2023-07-20T01:40:12;4.05;;;3.38;;
49241;SDS011;35079;52.704;13.814;2023-07-20T01:42:43;4.60;;;3.40;;
49241;SDS011;35079;52.704;13.814;2023-07-20T01:45:11;5.90;;;3.85;;
49241;SDS011;35079;52.704;13.814;2023-07-20T01:47:36;6.13;;;4.05;;
49241;SDS011;35079;52.704;13.814;2023-07-20T01:50:02;11.63;;;4.00;;
49241;SDS011;35079;52.704;13.814;2023-07-20T01:52:28;5.40;;;3.63;;
49241;SDS011;35079;52.704;13.814;2023-07-20T01:54:53;4.80;;;3.40;;
49241;SDS011;35079;52.704;13.814;2023-07-20T01:57:19;6.10;;;3.58;;
49241;SDS011;35079;52.704;13.814;2023-07-20T01:59:45;7.07;;;3.88;;
49241;SDS011;35079;52.704;13.814;2023-07-20T02:02:11;6.10;;;3.38;;
49241;SDS011;35079;52.704;13.814;2023-07-20T02:04:36;7.05;;;3.67;;
49241;SDS011;35079;52.704;13.814;2023-07-20T02:07:02;6.97;;;3.75;;
49241;SDS011;35079;52.704;13.814;2023-07-20T02:09:27;4.30;;;3.90;;
49241;SDS011;35079;52.704;13.814;2023-07-20T02:11:53;6.53;;;3.60;;
49241;SDS011;35079;52.704;13.814;2023-07-20T02:14:19;4.68;;;3.65;;
49241;SDS011;35079;52.704;13.814;2023-07-20T02:16:44;3.45;;;3.15;;
49241;SDS011;35079;52.704;13.814;2023-07-20T02:19:10;6.47;;;3.65;;
49241;SDS011;35079;52.704;13.814;2023-07-20T02:21:35;4.20;;;3.20;;
49241;SDS011;35079;52.704;13.814;2023-07-20T02:24:01;6.32;;;3.40;;
49241;SDS011;35079;52.704;13.814;2023-07-20T02:26:27;9.48;;;3.33;;
49241;SDS011;35079;52.704;13.814;2023-07-20T02:28:53;4.75;;;3.42;;
49241;SDS011;35079;52.704;13.814;2023-07-20T02:31:18;5.60;;;3.88;;
49241;SDS011;35079;52.704;13.814;2023-07-20T02:33:44;9.77;;;4.43;;
49241;SDS011;35079;52.704;13.814;2023-07-20T02:36:10;10.35;;;5.90;;
49241;SDS011;35079;52.704;13.814;2023-07-20T02:38:35;10.90;;;6.10;;
49241;SDS011;35079;52.704;13.814;2023-07-20T02:41:01;16.23;;;7.57;;
49241;SDS011;35079;52.704;13.814;2023-07-20T02:43:27;9.60;;;6.50;;
49241;SDS011;35079;52.704;13.814;2023-07-20T02:45:53;10.23;;;6.45;;
49241;SDS011;35079;52.704;13.814;2023-07-20T02:48:19;13.10;;;7.00;;
49241;SDS011;35079;52.704;13.814;2023-07-20T02:50:44;15.52;;;9.13;;
49241;SDS011;35079;52.704;13.814;2023-07-20T02:53:10;13.13;;;8.30;;
49241;SDS011;35079;52.704;13.814;2023-07-20T02:55:35;13.05;;;9.23;;
49241;SDS011;35079;52.704;13.814;2023-07-20T02:58:01;10.48;;;8.05;;
49241;SDS011;35079;52.704;13.814;2023-07-20T03:00:27;13.45;;;8.98;;
49241;SDS011;35079;52.704;13.814;2023-07-20T03:02:52;13.88;;;9.98;;
49241;SDS011;35079;52.704;13.814;2023-07-20T03:05:20;16.35;;;10.55;;
49241;SDS011;35079;52.704;13.814;2023-07-20T03:07:47;11.85;;;9.30;;
49241;SDS011;35079;52.704;13.814;2023-07-20T03:10:14;12.35;;;9.00;;
49241;SDS011;35079;52.704;13.814;2023-07-20T03:12:39;13.60;;;9.65;;
49241;SDS011;35079;52.704;13.814;2023-07-20T03:15:05;14.15;;;9.95;;
49241;SDS011;35079;52.704;13.814;2023-07-20T03:17:31;12.25;;;8.80;;
49241;SDS011;35079;52.704;13.814;2023-07-20T03:19:57;10.77;;;8.63;;
49241;SDS011;35079;52.704;13.814;2023-07-20T03:22:24;14.27;;;10.25;;
49241;SDS011;35079;52.704;13.814;2023-07-20T03:24:50;15.02;;;10.10;;
49241;SDS011;35079;52.704;13.814;2023-07-20T03:27:17;14.45;;;10.25;;
49241;SDS011;35079;52.704;13.814;2023-07-20T03:29:43;12.90;;;9.20;;
49241;SDS011;35079;52.704;13.814;2023-07-20T03:32:09;10.70;;;9.20;;
49241;SDS011;35079;52.704;13.814;2023-07-20T03:34:35;12.98;;;11.07;;
49241;SDS011;35079;52.704;13.814;2023-07-20T03:37:00;15.30;;;10.95;;
49241;SDS011;35079;52.704;13.814;2023-07-20T03:39:26;13.40;;;11.43;;
49241;SDS011;35079;52.704;13.814;2023-07-20T03:41:52;18.35;;;12.20;;
49241;SDS011;35079;52.704;13.814;2023-07-20T03:44:17;13.13;;;9.73;;
49241;SDS011;35079;52.704;13.814;2023-07-20T03:46:43;15.75;;;11.00;;
49241;SDS011;35079;52.704;13.814;2023-07-20T03:49:09;18.33;;;12.70;;
49241;SDS011;35079;52.704;13.814;2023-07-20T03:51:35;14.15;;;12.35;;
49241;SDS011;35079;52.704;13.814;2023-07-20T03:54:01;16.23;;;10.95;;
49241;SDS011;35079;52.704;13.814;2023-07-20T03:56:27;15.65;;;12.85;;
49241;SDS011;35079;52.704;13.814;2023-07-20T03:58:53;18.65;;;13.07;;
49241;SDS011;35079;52.704;13.814;2023-07-20T04:01:18;14.35;;;12.00;;
49241;SDS011;35079;52.704;13.814;2023-07-20T04:03:44;18.63;;;13.07;;
49241;SDS011;35079;52.704;13.814;2023-07-20T04:06:10;19.27;;;12.93;;
49241;SDS011;35079;52.704;13.814;2023-07-20T04:08:36;19.15;;;13.57;;
49241;SDS011;35079;52.704;13.814;2023-07-20T04:11:02;19.00;;;13.18;;
49241;SDS011;35079;52.704;13.814;2023-07-20T04:13:28;15.63;;;12.15;;
49241;SDS011;35079;52.704;13.814;2023-07-20T04:15:53;14.18;;;11.20;;
49241;SDS011;35079;52.704;13.814;2023-07-20T04:18:20;16.75;;;12.23;;
49241;SDS011;35079;52.704;13.814;2023-07-20T04:20:45;19.52;;;11.70;;
49241;SDS011;35079;52.704;13.814;2023-07-20T04:23:11;14.13;;;10.63;;
49241;SDS011;35079;52.704;13.814;2023-07-20T04:25:39;13.52;;;10.18;;
49241;SDS011;35079;52.704;13.814;2023-07-20T04:28:06;14.23;;;10.80;;
49241;SDS011;35079;52.704;13.814;2023-07-20T04:30:38;10.88;;;9.30;;
49241;SDS011;35079;52.704;13.814;2023-07-20T04:33:05;12.60;;;10.20;;
49241;SDS011;35079;52.704;13.814;2023-07-20T04:38:12;11.88;;;8.82;;
49241;SDS011;35079;52.704;13.814;2023-07-20T04:40:37;10.75;;;8.70;;
49241;SDS011;35079;52.704;13.814;2023-07-20T04:43:03;10.38;;;8.40;;
49241;SDS011;35079;52.704;13.814;2023-07-20T04:45:28;11.15;;;9.02;;
49241;SDS011;35079;52.704;13.814;2023-07-20T04:47:55;9.23;;;8.02;;
49241;SDS011;35079;52.704;13.814;2023-07-20T04:50:20;9.45;;;7.85;;
49241;SDS011;35079;52.704;13.814;2023-07-20T04:52:46;8.75;;;7.53;;
49241;SDS011;35079;52.704;13.814;2023-07-20T04:55:13;9.40;;;7.45;;
49241;SDS011;35079;52.704;13.814;2023-07-20T04:57:38;11.20;;;8.10;;
49241;SDS011;35079;52.704;13.814;2023-07-20T05:00:04;9.73;;;7.68;;
49241;SDS011;35079;52.704;13.814;2023-07-20T05:02:31;9.05;;;7.28;;
49241;SDS011;35079;52.704;13.814;2023-07-20T05:04:56;9.13;;;7.10;;
49241;SDS011;35079;52.704;13.814;2023-07-20T05:07:22;7.70;;;6.90;;
49241;SDS011;35079;52.704;13.814;2023-07-20T05:09:47;8.25;;;6.32;;
49241;SDS011;35079;52.704;13.814;2023-07-20T05:12:13;6.82;;;6.13;;
49241;SDS011;35079;52.704;13.814;2023-07-20T05:14:39;7.13;;;5.85;;
49241;SDS011;35079;52.704;13.814;2023-07-20T05:17:04;7.03;;;5.95;;
49241;SDS011;35079;52.704;13.814;2023-07-20T05:19:30;5.95;;;5.35;;
49241;SDS011;35079;52.704;13.814;2023-07-20T05:21:56;5.75;;;5.07;;
49241;SDS011;35079;52.704;13.814;2023-07-20T05:24:21;6.05;;;4.85;;
49241;SDS011;35079;52.704;13.814;2023-07-20T05:26:47;6.15;;;4.78;;
49241;SDS011;35079;52.704;13.814;2023-07-20T05:29:13;4.50;;;4.00;;
49241;SDS011;35079;52.704;13.814;2023-07-20T05:31:38;3.47;;;3.05;;
49241;SDS011;35079;52.704;13.814;2023-07-20T05:34:04;4.13;;;3.17;;
49241;SDS011;35079;52.704;13.814;2023-07-20T05:36:30;4.80;;;3.10;;
49241;SDS011;35079;52.704;13.814;2023-07-20T05:38:56;3.05;;;2.75;;
49241;SDS011;35079;52.704;13.814;2023-07-20T05:41:21;3.33;;;2.72;;
49241;SDS011;35079;52.704;13.814;2023-07-20T05:43:47;2.75;;;2.55;;
49241;SDS011;35079;52.704;13.814;2023-07-20T05:46:13;3.20;;;2.90;;
49241;SDS011;35079;52.704;13.814;2023-07-20T05:48:39;4.07;;;2.53;;
49241;SDS011;35079;52.704;13.814;2023-07-20T05:51:05;4.22;;;2.75;;
49241;SDS011;35079;52.704;13.814;2023-07-20T05:53:30;3.85;;;2.90;;
49241;SDS011;35079;52.704;13.814;2023-07-20T05:55:56;3.58;;;3.28;;
49241;SDS011;35079;52.704;13.814;2023-07-20T05:58:22;5.88;;;2.80;;
49241;SDS011;35079;52.704;13.814;2023-07-20T06:00:48;3.67;;;2.90;;
49241;SDS011;35079;52.704;13.814;2023-07-20T06:03:14;5.45;;;2.90;;
49241;SDS011;35079;52.704;13.814;2023-07-20T06:05:41;4.28;;;3.35;;
49241;SDS011;35079;52.704;13.814;2023-07-20T06:08:07;4.63;;;2.92;;
49241;SDS011;35079;52.704;13.814;2023-07-20T06:10:33;3.10;;;2.78;;
49241;SDS011;35079;52.704;13.814;2023-07-20T06:12:59;5.22;;;2.95;;
49241;SDS011;35079;52.704;13.814;2023-07-20T06:15:25;4.78;;;3.75;;
49241;SDS011;35079;52.704;13.814;2023-07-20T06:17:51;6.53;;;3.05;;
49241;SDS011;35079;52.704;13.814;2023-07-20T06:20:17;5.20;;;3.58;;
49241;SDS011;35079;52.704;13.814;2023-07-20T06:22:43;6.50;;;3.20;;
49241;SDS011;35079;52.704;13.814;2023-07-20T06:25:10;2.83;;;2.63;;
49241;SDS011;35079;52.704;13.814;2023-07-20T06:27:36;3.35;;;2.78;;
49241;SDS011;35079;52.704;13.814;2023-07-20T06:30:01;3.50;;;2.70;;
49241;SDS011;35079;52.704;13.814;2023-07-20T06:32:27;4.60;;;2.90;;
49241;SDS011;35079;52.704;13.814;2023-07-20T06:34:53;2.90;;;2.58;;
49241;SDS011;35079;52.704;13.814;2023-07-20T06:37:18;5.20;;;3.15;;
49241;SDS011;35079;52.704;13.814;2023-07-20T06:39:45;3.47;;;2.63;;
49241;SDS011;35079;52.704;13.814;2023-07-20T06:42:11;2.67;;;2.40;;
49241;SDS011;35079;52.704;13.814;2023-07-20T06:44:36;3.35;;;2.40;;
49241;SDS011;35079;52.704;13.814;2023-07-20T06:47:02;2.92;;;2.60;;
49241;SDS011;35079;52.704;13.814;2023-07-20T06:49:28;2.70;;;2.10;;
49241;SDS011;35079;52.704;13.814;2023-07-20T06:51:53;3.92;;;2.10;;
49241;SDS011;35079;52.704;13.814;2023-07-20T06:54:19;3.60;;;1.90;;
49241;SDS011;35079;52.704;13.814;2023-07-20T06:56:45;2.95;;;1.80;;
49241;SDS011;35079;52.704;13.814;2023-07-20T06:59:11;3.47;;;1.33;;
49241;SDS011;35079;52.704;13.814;2023-07-20T07:01:36;1.05;;;0.95;;
49241;SDS011;35079;52.704;13.814;2023-07-20T07:04:02;2.03;;;1.10;;
49241;SDS011;35079;52.704;13.814;2023-07-20T07:06:28;1.10;;;1.00;;
49241;SDS011;35079;52.704;13.814;2023-07-20T07:08:54;2.38;;;1.20;;
49241;SDS011;35079;52.704;13.814;2023-07-20T07:11:20;2.28;;;1.10;;
49241;SDS011;35079;52.704;13.814;2023-07-20T07:13:47;1.48;;;1.35;;
49241;SDS011;35079;52.704;13.814;2023-07-20T07:16:16;2.97;;;1.50;;
49241;SDS011;35079;52.704;13.814;2023-07-20T07:18:44;1.65;;;1.33;;
49241;SDS011;35079;52.704;13.814;2023-07-20T07:21:10;2.10;;;1.15;;
49241;SDS011;35079;52.704;13.814;2023-07-20T07:23:37;1.60;;;1.40;;
49241;SDS011;35079;52.704;13.814;2023-07-20T07:26:03;1.60;;;1.30;;
49241;SDS011;35079;52.704;13.814;2023-07-20T07:28:29;2.05;;;1.67;;
49241;SDS011;35079;52.704;13.814;2023-07-20T07:30:55;2.05;;;1.30;;
49241;SDS011;35079;52.704;13.814;2023-07-20T07:33:22;2.42;;;1.40;;
49241;SDS011;35079;52.704;13.814;2023-07-20T07:35:47;3.05;;;1.70;;
49241;SDS011;35079;52.704;13.814;2023-07-20T07:38:14;4.45;;;2.30;;
49241;SDS011;35079;52.704;13.814;2023-07-20T07:40:39;2.65;;;1.50;;
49241;SDS011;35079;52.704;13.814;2023-07-20T07:43:05;1.73;;;1.30;;
49241;SDS011;35079;52.704;13.814;2023-07-20T07:45:34;2.53;;;1.10;;
49241;SDS011;35079;52.704;13.814;2023-07-20T07:48:03;1.77;;;0.90;;
49241;SDS011;35079;52.704;13.814;2023-07-20T07:50:29;1.98;;;1.00;;
49241;SDS011;35079;52.704;13.814;2023-07-20T07:52:55;1.20;;;1.10;;
49241;SDS011;35079;52.704;13.814;2023-07-20T07:55:21;1.67;;;0.95;;
49241;SDS011;35079;52.704;13.814;2023-07-20T07:57:46;4.30;;;0.80;;
49241;SDS011;35079;52.704;13.814;2023-07-20T08:00:12;2.45;;;1.05;;
49241;SDS011;35079;52.704;13.814;2023-07-20T08:02:42;2.20;;;1.00;;
49241;SDS011;35079;52.704;13.814;2023-07-20T08:05:09;1.20;;;1.10;;
49241;SDS011;35079;52.704;13.814;2023-07-20T08:07:35;0.82;;;0.80;;
49241;SDS011;35079;52.704;13.814;2023-07-20T08:10:04;1.02;;;1.00;;
49241;SDS011;35079;52.704;13.814;2023-07-20T08:12:30;1.17;;;1.10;;
49241;SDS011;35079;52.704;13.814;2023-07-20T08:14:56;1.40;;;0.82;;
49241;SDS011;35079;52.704;13.814;2023-07-20T08:17:22;0.90;;;0.90;;
49241;SDS011;35079;52.704;13.814;2023-07-20T08:19:48;1.10;;;1.00;;
49241;SDS011;35079;52.704;13.814;2023-07-20T08:22:13;2.17;;;1.08;;
49241;SDS011;35079;52.704;13.814;2023-07-20T08:24:39;1.10;;;1.00;;
49241;SDS011;35079;52.704;13.814;2023-07-20T08:27:05;1.88;;;1.05;;
49241;SDS011;35079;52.704;13.814;2023-07-20T08:29:31;3.25;;;1.05;;
49241;SDS011;35079;52.704;13.814;2023-07-20T08:31:57;4.15;;;1.15;;
49241;SDS011;35079;52.704;13.814;2023-07-20T08:34:22;1.50;;;1.13;;
49241;SDS011;35079;52.704;13.814;2023-07-20T08:36:48;1.42;;;0.90;;
49241;SDS011;35079;52.704;13.814;2023-07-20T08:39:14;0.82;;;0.70;;
49241;SDS011;35079;52.704;13.814;2023-07-20T08:41:40;0.90;;;0.70;;
49241;SDS011;35079;52.704;13.814;2023-07-20T08:44:11;1.50;;;0.80;;
49241;SDS011;35079;52.704;13.814;2023-07-20T08:46:38;2.55;;;0.90;;
49241;SDS011;35079;52.704;13.814;2023-07-20T08:49:04;2.15;;;0.95;;
49241;SDS011;35079;52.704;13.814;2023-07-20T08:51:31;0.70;;;0.70;;
49241;SDS011;35079;52.704;13.814;2023-07-20T08:53:58;2.17;;;0.75;;
49241;SDS011;35079;52.704;13.814;2023-07-20T08:56:25;5.85;;;0.90;;
49241;SDS011;35079;52.704;13.814;2023-07-20T08:58:54;0.70;;;0.60;;
49241;SDS011;35079;52.704;13.814;2023-07-20T09:01:21;4.38;;;0.73;;
49241;SDS011;35079;52.704;13.814;2023-07-20T09:03:47;1.10;;;0.50;;
49241;SDS011;35079;52.704;13.814;2023-07-20T09:06:14;0.60;;;0.60;;
49241;SDS011;35079;52.704;13.814;2023-07-20T09:08:41;0.75;;;0.68;;
49241;SDS011;35079;52.704;13.814;2023-07-20T09:11:07;1.08;;;0.60;;
49241;SDS011;35079;52.704;13.814;2023-07-20T09:13:33;2.17;;;0.60;;
49241;SDS011;35079;52.704;13.814;2023-07-20T09:16:00;0.40;;;0.40;;
49241;SDS011;35079;52.704;13.814;2023-07-20T09:18:26;0.65;;;0.47;;
49241;SDS011;35079;52.704;13.814;2023-07-20T09:20:53;2.25;;;0.60;;
49241;SDS011;35079;52.704;13.814;2023-07-20T09:23:30;1.63;;;0.50;;
49241;SDS011;35079;52.704;13.814;2023-07-20T09:26:00;0.45;;;0.40;;
49241;SDS011;35079;52.704;13.814;2023-07-20T09:28:39;0.32;;;0.30;;
49241;SDS011;35079;52.704;13.814;2023-07-20T09:31:15;0.40;;;0.40;;
49241;SDS011;35079;52.704;13.814;2023-07-20T09:33:45;0.85;;;0.50;;
49241;SDS011;35079;52.704;13.814;2023-07-20T09:36:11;0.63;;;0.50;;
49241;SDS011;35079;52.704;13.814;2023-07-20T09:38:37;0.40;;;0.40;;
49241;SDS011;35079;52.704;13.814;2023-07-20T09:41:05;1.63;;;0.50;;
49241;SDS011;35079;52.704;13.814;2023-07-20T09:43:34;0.40;;;0.40;;
49241;SDS011;35079;52.704;13.814;2023-07-20T09:46:00;0.73;;;0.60;;
49241;SDS011;35079;52.704;13.814;2023-07-20T09:48:26;0.50;;;0.50;;
49241;SDS011;35079;52.704;13.814;2023-07-20T09:50:52;1.48;;;0.60;;
49241;SDS011;35079;52.704;13.814;2023-07-20T09:53:19;1.50;;;0.60;;
49241;SDS011;35079;52.704;13.814;2023-07-20T09:55:48;0.55;;;0.55;;
49241;SDS011;35079;52.704;13.814;2023-07-20T09:58:14;0.57;;;0.57;;
49241;SDS011;35079;52.704;13.814;2023-07-20T10:00:41;3.55;;;0.55;;
49241;SDS011;35079;52.704;13.814;2023-07-20T10:03:12;2.42;;;0.80;;
49241;SDS011;35079;52.704;13.814;2023-07-20T10:05:43;0.88;;;0.88;;
49241;SDS011;35079;52.704;13.814;2023-07-20T10:08:11;0.70;;;0.70;;
49241;SDS011;35079;52.704;13.814;2023-07-20T10:10:38;2.05;;;1.23;;
49241;SDS011;35079;52.704;13.814;2023-07-20T10:13:08;0.52;;;0.52;;
49241;SDS011;35079;52.704;13.814;2023-07-20T10:15:50;2.33;;;0.88;;
49241;SDS011;35079;52.704;13.814;2023-07-20T10:18:24;1.67;;;0.70;;
49241;SDS011;35079;52.704;13.814;2023-07-20T10:20:54;0.75;;;0.60;;
49241;SDS011;35079;52.704;13.814;2023-07-20T10:23:21;0.60;;;0.50;;
49241;SDS011;35079;52.704;13.814;2023-07-20T10:25:48;0.95;;;0.60;;
49241;SDS011;35079;52.704;13.814;2023-07-20T10:28:15;1.67;;;0.80;;
49241;SDS011;35079;52.704;13.814;2023-07-20T10:30:41;2.25;;;0.70;;
49241;SDS011;35079;52.704;13.814;2023-07-20T10:33:08;1.30;;;0.65;;
49241;SDS011;35079;52.704;13.814;2023-07-20T10:38:40;1.73;;;0.60;;
49241;SDS011;35079;52.704;13.814;2023-07-20T10:41:21;0.75;;;0.50;;
49241;SDS011;35079;52.704;13.814;2023-07-20T10:43:49;1.55;;;0.55;;
49241;SDS011;35079;52.704;13.814;2023-07-20T10:46:33;0.52;;;0.50;;
49241;SDS011;35079;52.704;13.814;2023-07-20T10:49:05;0.82;;;0.52;;
49241;SDS011;35079;52.704;13.814;2023-07-20T10:56:43;2.80;;;0.60;;
49241;SDS011;35079;52.704;13.814;2023-07-20T10:59:19;4.00;;;0.70;;
49241;SDS011;35079;52.704;13.814;2023-07-20T11:02:00;0.70;;;0.63;;
49241;SDS011;35079;52.704;13.814;2023-07-20T11:07:07;2.40;;;0.70;;
49241;SDS011;35079;52.704;13.814;2023-07-20T11:09:36;0.70;;;0.63;;
49241;SDS011;35079;52.704;13.814;2023-07-20T11:14:42;1.90;;;0.60;;
49241;SDS011;35079;52.704;13.814;2023-07-20T11:17:22;0.55;;;0.50;;
49241;SDS011;35079;52.704;13.814;2023-07-20T11:19:57;0.95;;;0.70;;
49241;SDS011;35079;52.704;13.814;2023-07-20T11:22:28;0.68;;;0.60;;
49241;SDS011;35079;52.704;13.814;2023-07-20T11:24:58;0.55;;;0.50;;
49241;SDS011;35079;52.704;13.814;2023-07-20T11:27:24;0.35;;;0.35;;
49241;SDS011;35079;52.704;13.814;2023-07-20T11:29:49;1.17;;;0.50;;
49241;SDS011;35079;52.704;13.814;2023-07-20T11:32:24;0.55;;;0.55;;
49241;SDS011;35079;52.704;13.814;2023-07-20T11:37:16;0.40;;;0.40;;
49241;SDS011;35079;52.704;13.814;2023-07-20T11:39:43;0.93;;;0.63;;
49241;SDS011;35079;52.704;13.814;2023-07-20T11:42:08;1.70;;;0.63;;
49241;SDS011;35079;52.704;13.814;2023-07-20T11:44:34;0.70;;;0.70;;
49241;SDS011;35079;52.704;13.814;2023-07-20T11:47:01;0.73;;;0.40;;
49241;SDS011;35079;52.704;13.814;2023-07-20T11:49:38;0.60;;;0.50;;
49241;SDS011;35079;52.704;13.814;2023-07-20T11:52:06;0.57;;;0.57;;
49241;SDS011;35079;52.704;13.814;2023-07-20T11:54:34;0.60;;;0.40;;
49241;SDS011;35079;52.704;13.814;2023-07-20T11:57:01;2.35;;;0.30;;
49241;SDS011;35079;52.704;13.814;2023-07-20T11:59:27;0.98;;;0.47;;
49241;SDS011;35079;52.704;13.814;2023-07-20T12:01:53;0.55;;;0.40;;
49241;SDS011;35079;52.704;13.814;2023-07-20T12:04:18;0.50;;;0.45;;
49241;SDS011;35079;52.704;13.814;2023-07-20T12:06:47;0.45;;;0.40;;
49241;SDS011;35079;52.704;13.814;2023-07-20T12:09:14;0.40;;;0.40;;
49241;SDS011;35079;52.704;13.814;2023-07-20T12:11:42;0.30;;;0.30;;
49241;SDS011;35079;52.704;13.814;2023-07-20T12:14:09;1.42;;;0.50;;
49241;SDS011;35079;52.704;13.814;2023-07-20T12:16:36;0.55;;;0.43;;
49241;SDS011;35079;52.704;13.814;2023-07-20T12:19:06;0.70;;;0.55;;
49241;SDS011;35079;52.704;13.814;2023-07-20T12:21:34;0.47;;;0.40;;
49241;SDS011;35079;52.704;13.814;2023-07-20T12:24:04;1.08;;;0.40;;
49241;SDS011;35079;52.704;13.814;2023-07-20T12:26:30;0.65;;;0.50;;
49241;SDS011;35079;52.704;13.814;2023-07-20T12:28:57;0.60;;;0.57;;
49241;SDS011;35079;52.704;13.814;2023-07-20T12:31:23;0.73;;;0.70;;
49241;SDS011;35079;52.704;13.814;2023-07-20T12:33:52;0.88;;;0.60;;
49241;SDS011;35079;52.704;13.814;2023-07-20T12:36:22;2.30;;;0.60;;
49241;SDS011;35079;52.704;13.814;2023-07-20T12:38:48;1.25;;;0.77;;
49241;SDS011;35079;52.704;13.814;2023-07-20T12:41:15;3.88;;;0.77;;
49241;SDS011;35079;52.704;13.814;2023-07-20T12:43:41;0.50;;;0.50;;
49241;SDS011;35079;52.704;13.814;2023-07-20T12:46:07;0.82;;;0.70;;
49241;SDS011;35079;52.704;13.814;2023-07-20T12:48:33;1.48;;;0.50;;
49241;SDS011;35079;52.704;13.814;2023-07-20T12:51:01;1.08;;;0.60;;
49241;SDS011;35079;52.704;13.814;2023-07-20T12:53:28;0.60;;;0.50;;
49241;SDS011;35079;52.704;13.814;2023-07-20T12:55:53;1.20;;;0.55;;
49241;SDS011;35079;52.704;13.814;2023-07-20T12:58:19;0.55;;;0.47;;
49241;SDS011;35079;52.704;13.814;2023-07-20T13:00:45;0.68;;;0.30;;
49241;SDS011;35079;52.704;13.814;2023-07-20T13:03:10;2.47;;;0.50;;
49241;SDS011;35079;52.704;13.814;2023-07-20T13:05:36;0.88;;;0.52;;
49241;SDS011;35079;52.704;13.814;2023-07-20T13:08:02;0.60;;;0.50;;
49241;SDS011;35079;52.704;13.814;2023-07-20T13:10:27;0.50;;;0.50;;
49241;SDS011;35079;52.704;13.814;2023-07-20T13:12:54;1.65;;;0.50;;
49241;SDS011;35079;52.704;13.814;2023-07-20T13:15:20;3.00;;;0.50;;
49241;SDS011;35079;52.704;13.814;2023-07-20T13:17:45;0.50;;;0.50;;
49241;SDS011;35079;52.704;13.814;2023-07-20T13:20:12;0.50;;;0.50;;
49241;SDS011;35079;52.704;13.814;2023-07-20T13:22:38;2.53;;;0.60;;
49241;SDS011;35079;52.704;13.814;2023-07-20T13:25:05;1.17;;;0.60;;
49241;SDS011;35079;52.704;13.814;2023-07-20T13:27:31;1.23;;;0.60;;
49241;SDS011;35079;52.704;13.814;2023-07-20T13:29:58;1.90;;;0.60;;
49241;SDS011;35079;52.704;13.814;2023-07-20T13:32:25;1.38;;;0.50;;
49241;SDS011;35079;52.704;13.814;2023-07-20T13:34:51;3.13;;;0.50;;
49241;SDS011;35079;52.704;13.814;2023-07-20T13:37:17;0.63;;;0.40;;
49241;SDS011;35079;52.704;13.814;2023-07-20T13:39:42;1.52;;;0.45;;
49241;SDS011;35079;52.704;13.814;2023-07-20T13:42:08;0.73;;;0.73;;
49241;SDS011;35079;52.704;13.814;2023-07-20T13:44:35;0.52;;;0.52;;
49241;SDS011;35079;52.704;13.814;2023-07-20T13:47:02;1.38;;;0.60;;
49241;SDS011;35079;52.704;13.814;2023-07-20T13:49:30;1.33;;;0.60;;
49241;SDS011;35079;52.704;13.814;2023-07-20T13:51:56;1.05;;;0.52;;
49241;SDS011;35079;52.704;13.814;2023-07-20T13:54:22;0.85;;;0.60;;
49241;SDS011;35079;52.704;13.814;2023-07-20T13:56:48;0.85;;;0.50;;
49241;SDS011;35079;52.704;13.814;2023-07-20T13:59:14;0.38;;;0.38;;
49241;SDS011;35079;52.704;13.814;2023-07-20T14:01:39;0.88;;;0.50;;
49241;SDS011;35079;52.704;13.814;2023-07-20T14:04:05;1.23;;;0.60;;
49241;SDS011;35079;52.704;13.814;2023-07-20T14:06:31;0.95;;;0.60;;
49241;SDS011;35079;52.704;13.814;2023-07-20T14:08:58;0.77;;;0.60;;
49241;SDS011;35079;52.704;13.814;2023-07-20T14:11:24;0.68;;;0.50;;
49241;SDS011;35079;52.704;13.814;2023-07-20T14:13:50;1.23;;;0.45;;
49241;SDS011;35079;52.704;13.814;2023-07-20T14:16:22;0.50;;;0.50;;
49241;SDS011;35079;52.704;13.814;2023-07-20T14:18:48;1.55;;;0.50;;
49241;SDS011;35079;52.704;13.814;2023-07-20T14:21:15;3.13;;;0.80;;
49241;SDS011;35079;52.704;13.814;2023-07-20T14:23:48;1.52;;;0.50;;
49241;SDS011;35079;52.704;13.814;2023-07-20T14:26:14;0.68;;;0.45;;
49241;SDS011;35079;52.704;13.814;2023-07-20T14:28:40;3.05;;;0.70;;
49241;SDS011;35079;52.704;13.814;2023-07-20T14:31:06;4.18;;;0.52;;
49241;SDS011;35079;52.704;13.814;2023-07-20T14:33:32;0.40;;;0.40;;
49241;SDS011;35079;52.704;13.814;2023-07-20T14:35:58;0.50;;;0.50;;
49241;SDS011;35079;52.704;13.814;2023-07-20T14:38:23;0.50;;;0.50;;
49241;SDS011;35079;52.704;13.814;2023-07-20T14:40:49;1.08;;;0.60;;
49241;SDS011;35079;52.704;13.814;2023-07-20T14:43:15;1.95;;;0.50;;
49241;SDS011;35079;52.704;13.814;2023-07-20T14:45:41;1.05;;;0.57;;
49241;SDS011;35079;52.704;13.814;2023-07-20T14:48:06;1.80;;;0.60;;
49241;SDS011;35079;52.704;13.814;2023-07-20T14:50:32;2.65;;;0.63;;
49241;SDS011;35079;52.704;13.814;2023-07-20T14:52:58;0.65;;;0.45;;
49241;SDS011;35079;52.704;13.814;2023-07-20T14:55:24;2.53;;;0.57;;
49241;SDS011;35079;52.704;13.814;2023-07-20T14:57:50;1.70;;;0.50;;